Time;durP1;ratioP1;P1;durP2;ratioP2;P2;SDS_P1;SDS_P2;PMS_P1;PMS_P2;Temp;Humidity;BMP_temperature;BMP_pressure;BME280_temperature;BME280_humidity;BME280_pressure;Samples;Min_cycle;Max_cycle;Signal;HPM_P1;HPM_P2
2021/01/17 00:00:00;;;;;;;4.30;4.00;;;17.30;51.00;;;;;;5104857;28;20177;-54
2021/01/17 00:02:26;;;;;;;4.80;4.40;;;17.40;51.00;;;;;;5104675;28;20267;-58
2021/01/17 00:04:51;;;;;;;4.90;4.40;;;17.30;51.00;;;;;;5104391;28;20292;-60
2021/01/17 00:07:17;;;;;;;4.43;4.10;;;17.30;51.00;;;;;;5104100;28;20177;-60
2021/01/17 00:09:42;;;;;;;4.50;4.10;;;17.30;51.00;;;;;;5104600;28;20170;-58
2021/01/17 00:12:09;;;;;;;4.93;4.53;;;17.30;51.00;;;;;;5104123;28;20204;-56
2021/01/17 00:14:36;;;;;;;4.25;3.85;;;17.30;51.00;;;;;;5104590;28;20173;-59
2021/01/17 00:17:02;;;;;;;4.75;4.30;;;17.30;50.90;;;;;;5086494;28;20177;-59
2021/01/17 00:19:28;;;;;;;5.00;4.50;;;17.20;50.80;;;;;;5104412;28;20166;-59
2021/01/17 00:21:53;;;;;;;6.65;4.70;;;17.30;50.90;;;;;;5100162;28;20649;-60
2021/01/17 00:24:19;;;;;;;5.10;3.95;;;17.20;51.10;;;;;;5083505;28;20221;-58
2021/01/17 00:26:45;;;;;;;4.60;4.20;;;17.30;51.20;;;;;;5084268;28;20178;-59
2021/01/17 00:29:10;;;;;;;4.93;4.40;;;17.20;51.10;;;;;;5084034;28;20557;-58
2021/01/17 00:31:36;;;;;;;4.65;4.30;;;17.10;51.00;;;;;;5084004;28;20263;-55
2021/01/17 00:34:02;;;;;;;4.18;3.88;;;17.20;51.10;;;;;;5083869;28;20929;-56
2021/01/17 00:36:28;;;;;;;4.40;4.00;;;17.10;51.00;;;;;;5083556;28;20916;-52
2021/01/17 00:38:53;;;;;;;4.63;4.22;;;17.10;51.00;;;;;;5084064;28;20646;-60
2021/01/17 00:41:19;;;;;;;4.75;4.35;;;17.00;51.00;;;;;;5083561;28;20178;-60
2021/01/17 00:43:44;;;;;;;4.75;4.35;;;17.10;51.10;;;;;;5083434;28;20608;-57
2021/01/17 00:46:10;;;;;;;4.75;4.35;;;17.00;51.00;;;;;;5083505;28;20185;-60
2021/01/17 00:48:35;;;;;;;5.32;4.82;;;17.00;51.00;;;;;;5083548;28;20319;-58
2021/01/17 00:51:01;;;;;;;5.05;4.57;;;17.00;51.00;;;;;;5083554;28;20182;-56
2021/01/17 00:53:28;;;;;;;4.57;4.18;;;16.90;51.00;;;;;;5083817;28;20174;-55
2021/01/17 00:55:53;;;;;;;4.75;4.10;;;16.90;51.00;;;;;;5085308;28;20217;-59
2021/01/17 00:58:19;;;;;;;5.05;4.55;;;16.90;51.00;;;;;;5087331;28;21143;-57
2021/01/17 01:00:45;;;;;;;4.32;4.03;;;16.90;51.00;;;;;;5087212;28;20177;-55
2021/01/17 01:03:10;;;;;;;4.30;4.00;;;16.90;51.00;;;;;;5087009;28;20201;-55
2021/01/17 01:05:36;;;;;;;4.75;4.35;;;16.80;51.00;;;;;;5087104;28;20218;-59
2021/01/17 01:08:06;;;;;;;5.07;4.68;;;16.80;51.00;;;;;;5086841;28;20632;-58
2021/01/17 01:10:31;;;;;;;5.25;4.75;;;16.80;51.00;;;;;;5087083;28;20286;-60
2021/01/17 01:12:57;;;;;;;5.10;4.60;;;16.80;51.00;;;;;;5087175;28;20942;-57
2021/01/17 01:15:23;;;;;;;4.70;4.30;;;16.80;51.00;;;;;;5086782;28;20166;-59
2021/01/17 01:17:48;;;;;;;4.65;4.35;;;16.80;51.00;;;;;;5086324;28;20178;-56
2021/01/17 01:20:14;;;;;;;5.32;4.93;;;16.70;50.90;;;;;;5086537;28;20201;-57
2021/01/17 01:22:41;;;;;;;4.90;4.47;;;16.70;50.90;;;;;;5086601;28;20174;-59
2021/01/17 01:25:07;;;;;;;5.57;4.82;;;16.70;51.00;;;;;;5086680;28;20301;-56
2021/01/17 01:27:33;;;;;;;4.65;4.05;;;16.70;51.00;;;;;;5086526;28;20253;-57
2021/01/17 01:29:59;;;;;;;4.97;4.57;;;16.70;51.10;;;;;;5086788;28;20617;-56
2021/01/17 01:32:24;;;;;;;5.65;4.25;;;16.70;51.70;;;;;;5086468;28;20542;-55
2021/01/17 01:34:50;;;;;;;5.05;4.65;;;16.60;51.00;;;;;;5086568;28;20181;-58
2021/01/17 01:37:15;;;;;;;5.40;5.00;;;16.60;50.90;;;;;;5086609;28;20206;-57
2021/01/17 01:39:41;;;;;;;5.05;4.65;;;16.60;50.90;;;;;;5086634;28;20657;-59
2021/01/17 01:42:06;;;;;;;5.30;4.82;;;16.60;50.90;;;;;;5086588;28;20205;-54
2021/01/17 01:44:32;;;;;;;4.95;4.45;;;16.60;51.60;;;;;;5086479;28;20205;-58
2021/01/17 01:46:58;;;;;;;5.03;4.63;;;16.60;51.00;;;;;;5086332;28;20260;-60
2021/01/17 01:49:23;;;;;;;5.00;4.60;;;16.60;51.00;;;;;;5051821;28;20545;-58
2021/01/17 01:51:49;;;;;;;5.28;4.88;;;16.50;50.90;;;;;;5068495;28;20206;-59
2021/01/17 01:54:15;;;;;;;4.65;4.25;;;16.50;50.90;;;;;;5068405;28;20608;-60
2021/01/17 01:56:40;;;;;;;5.45;4.97;;;16.50;50.90;;;;;;5052027;28;20576;-60
2021/01/17 01:59:06;;;;;;;5.63;5.13;;;16.50;51.00;;;;;;5067931;28;20174;-58
2021/01/17 02:01:31;;;;;;;5.07;4.57;;;16.50;51.00;;;;;;5086205;28;20170;-58
2021/01/17 02:03:57;;;;;;;5.45;5.05;;;16.50;50.90;;;;;;5051277;28;20284;-60
2021/01/17 02:06:23;;;;;;;5.28;4.88;;;16.50;50.90;;;;;;5086254;28;20527;-58
2021/01/17 02:09:20;;;;;;;5.35;4.85;;;16.50;51.00;;;;;;5085718;28;20631;-58
2021/01/17 02:12:03;;;;;;;5.10;4.70;;;16.40;50.90;;;;;;5067941;28;20280;-59
2021/01/17 02:14:39;;;;;;;5.53;5.13;;;16.40;50.90;;;;;;5085767;28;20732;-54
2021/01/17 02:17:06;;;;;;;4.95;4.55;;;16.40;50.90;;;;;;5052171;28;20173;-57
2021/01/17 02:19:35;;;;;;;5.13;4.72;;;16.40;50.90;;;;;;5067943;28;20197;-59
2021/01/17 02:22:01;;;;;;;5.15;4.65;;;16.40;50.90;;;;;;5051152;28;20177;-57
2021/01/17 02:24:40;;;;;;;4.97;4.32;;;16.40;50.90;;;;;;5050845;28;20250;-58
2021/01/17 02:27:06;;;;;;;5.35;4.85;;;16.40;50.90;;;;;;5051580;28;20256;-53
2021/01/17 02:29:31;;;;;;;5.28;4.88;;;16.30;50.90;;;;;;5085391;28;20340;-57
2021/01/17 02:31:59;;;;;;;4.63;4.22;;;16.40;50.90;;;;;;5051086;28;20173;-57
2021/01/17 02:34:25;;;;;;;5.25;4.85;;;16.30;50.90;;;;;;5051027;28;20173;-55
2021/01/17 02:36:52;;;;;;;5.40;4.90;;;16.30;50.90;;;;;;5050770;28;20570;-56
2021/01/17 02:39:29;;;;;;;5.43;5.03;;;16.30;50.90;;;;;;5066890;28;20259;-58
2021/01/17 02:42:01;;;;;;;5.10;4.65;;;16.30;50.90;;;;;;5067433;28;20317;-58
2021/01/17 02:44:28;;;;;;;5.10;4.70;;;16.30;50.90;;;;;;5084771;28;20207;-61
2021/01/17 02:46:54;;;;;;;5.45;4.97;;;16.30;50.90;;;;;;5085007;28;20170;-59
2021/01/17 02:49:21;;;;;;;5.13;4.72;;;16.30;50.90;;;;;;5085304;28;20176;-57
2021/01/17 02:51:48;;;;;;;5.80;5.30;;;16.30;50.80;;;;;;5085157;28;20177;-55
2021/01/17 02:54:19;;;;;;;5.68;5.20;;;16.30;50.80;;;;;;5084940;28;20178;-56
2021/01/17 02:56:49;;;;;;;5.10;4.70;;;16.20;50.80;;;;;;5085385;28;20220;-60
2021/01/17 02:59:15;;;;;;;5.45;5.05;;;16.20;50.70;;;;;;5067114;28;20515;-57
2021/01/17 03:01:41;;;;;;;5.75;5.25;;;16.20;50.70;;;;;;5050269;28;20177;-57
2021/01/17 03:04:18;;;;;;;4.90;4.50;;;16.20;50.70;;;;;;5066774;28;20249;-55
2021/01/17 03:06:43;;;;;;;5.22;4.72;;;16.20;50.80;;;;;;5067010;28;20254;-56
2021/01/17 03:09:10;;;;;;;5.20;4.80;;;16.20;50.80;;;;;;5050274;28;20941;-56
2021/01/17 03:11:36;;;;;;;5.50;5.00;;;16.20;50.80;;;;;;5084794;28;20969;-56
2021/01/17 03:14:02;;;;;;;5.55;5.13;;;16.20;50.80;;;;;;5084745;28;20181;-58
2021/01/17 03:16:27;;;;;;;6.25;5.68;;;16.20;50.80;;;;;;5049956;28;20173;-55
2021/01/17 03:18:53;;;;;;;5.40;5.00;;;16.10;50.80;;;;;;5083800;28;20185;-52
2021/01/17 03:21:18;;;;;;;4.97;4.57;;;16.10;50.80;;;;;;5084806;28;20478;-57
2021/01/17 03:23:44;;;;;;;5.05;4.65;;;16.20;50.80;;;;;;5084476;28;20214;-56
2021/01/17 03:26:09;;;;;;;5.57;5.07;;;16.10;50.80;;;;;;5084532;28;20182;-57
2021/01/17 03:28:35;;;;;;;5.65;5.15;;;16.10;50.70;;;;;;5084428;28;20271;-56
2021/01/17 03:31:01;;;;;;;5.57;5.07;;;16.10;50.70;;;;;;5084249;28;20219;-56
2021/01/17 03:33:26;;;;;;;4.95;4.55;;;16.10;50.70;;;;;;5084272;28;20265;-56
2021/01/17 03:35:52;;;;;;;5.47;4.97;;;16.10;50.70;;;;;;5084695;28;20181;-54
2021/01/17 03:38:17;;;;;;;6.07;5.55;;;16.00;50.60;;;;;;5084414;28;20253;-58
2021/01/17 03:40:43;;;;;;;5.70;5.20;;;16.10;50.70;;;;;;5084375;28;20182;-56
2021/01/17 03:43:08;;;;;;;5.75;5.22;;;16.00;50.70;;;;;;5084113;28;20188;-57
2021/01/17 03:45:34;;;;;;;5.30;4.90;;;16.10;50.70;;;;;;5084370;28;20295;-56
2021/01/17 03:47:59;;;;;;;5.85;5.35;;;16.00;50.70;;;;;;5084285;28;20235;-57
2021/01/17 03:50:25;;;;;;;5.28;4.78;;;16.00;50.70;;;;;;5084216;28;20535;-57
2021/01/17 03:52:50;;;;;;;5.43;5.00;;;16.00;50.70;;;;;;5084010;28;20198;-59
2021/01/17 03:55:16;;;;;;;6.07;5.47;;;16.00;50.70;;;;;;5084328;28;20178;-58
2021/01/17 03:57:41;;;;;;;6.30;5.70;;;16.00;50.70;;;;;;5084442;28;20290;-59
2021/01/17 04:00:08;;;;;;;5.88;5.38;;;16.00;50.60;;;;;;5084298;28;20173;-55
2021/01/17 04:02:33;;;;;;;5.40;4.95;;;16.00;50.70;;;;;;5083839;28;20178;-54
2021/01/17 04:04:59;;;;;;;5.78;5.28;;;15.90;50.70;;;;;;5083950;28;20212;-58
2021/01/17 04:07:28;;;;;;;5.22;4.82;;;15.90;50.60;;;;;;5084465;28;20531;-55
2021/01/17 04:09:53;;;;;;;5.32;4.88;;;16.00;50.70;;;;;;5083997;28;20166;-60
2021/01/17 04:12:19;;;;;;;5.55;5.05;;;15.90;50.70;;;;;;5084393;28;20650;-59
2021/01/17 04:14:44;;;;;;;5.80;5.30;;;15.90;50.60;;;;;;5083760;28;20185;-58
2021/01/17 04:17:10;;;;;;;5.50;5.00;;;15.90;50.70;;;;;;5084036;28;20235;-57
2021/01/17 04:19:35;;;;;;;5.70;5.20;;;15.90;50.60;;;;;;5084129;28;20211;-59
2021/01/17 04:22:01;;;;;;;5.43;4.97;;;15.90;50.70;;;;;;5084136;28;20610;-58
2021/01/17 04:24:26;;;;;;;5.28;4.82;;;15.90;50.70;;;;;;5083913;28;20206;-59
2021/01/17 04:26:58;;;;;;;5.13;4.72;;;15.90;50.70;;;;;;5084095;28;20713;-56
2021/01/17 04:29:24;;;;;;;5.00;4.60;;;15.90;50.70;;;;;;5083680;28;20589;-56
2021/01/17 04:31:50;;;;;;;5.57;5.07;;;15.90;50.60;;;;;;5087794;28;20178;-56
2021/01/17 04:34:15;;;;;;;5.90;5.40;;;15.90;50.70;;;;;;5087640;28;20181;-55
2021/01/17 04:36:46;;;;;;;5.30;4.90;;;15.80;50.70;;;;;;5088274;28;20170;-56
2021/01/17 04:39:11;;;;;;;5.32;4.85;;;15.80;50.70;;;;;;5069872;28;20643;-58
2021/01/17 04:41:37;;;;;;;5.43;4.93;;;15.90;50.70;;;;;;5088189;28;20214;-60
2021/01/17 04:44:03;;;;;;;5.88;5.45;;;15.80;50.70;;;;;;5052828;28;20205;-58
2021/01/17 04:46:30;;;;;;;5.55;5.05;;;15.80;50.70;;;;;;5087928;28;20185;-58
2021/01/17 04:48:58;;;;;;;6.07;5.50;;;15.80;50.70;;;;;;5087743;28;20174;-60
2021/01/17 04:51:25;;;;;;;5.00;4.63;;;15.80;50.70;;;;;;5087967;28;20441;-60
2021/01/17 04:53:50;;;;;;;5.90;5.38;;;15.80;50.70;;;;;;5087185;28;20177;-57
2021/01/17 04:56:30;;;;;;;5.30;4.90;;;15.80;50.70;;;;;;5052802;28;20182;-58
2021/01/17 04:59:09;;;;;;;5.53;5.03;;;15.80;50.80;;;;;;5087219;28;20227;-59
2021/01/17 05:01:46;;;;;;;5.55;5.15;;;15.70;50.70;;;;;;5087634;28;20212;-60
2021/01/17 05:04:34;;;;;;;5.72;5.22;;;15.70;50.70;;;;;;5087324;28;20326;-57
2021/01/17 05:06:59;;;;;;;5.80;5.30;;;15.70;50.70;;;;;;5087062;28;20239;-59
2021/01/17 05:09:31;;;;;;;5.60;5.10;;;15.70;50.70;;;;;;5069608;28;20265;-57
2021/01/17 05:12:12;;;;;;;5.57;5.15;;;15.70;50.70;;;;;;5087037;28;20182;-54
2021/01/17 05:14:42;;;;;;;5.50;5.00;;;15.70;50.70;;;;;;5087076;28;20209;-58
2021/01/17 05:17:08;;;;;;;5.13;4.72;;;15.70;50.70;;;;;;5087061;28;20174;-59
2021/01/17 05:19:38;;;;;;;5.72;5.22;;;15.70;50.70;;;;;;5052676;28;20184;-59
2021/01/17 05:22:04;;;;;;;5.88;5.38;;;15.60;50.60;;;;;;5069219;28;20166;-61
2021/01/17 05:24:30;;;;;;;5.65;5.15;;;15.70;50.70;;;;;;5087227;28;20634;-59
2021/01/17 05:26:57;;;;;;;6.05;5.45;;;15.70;50.70;;;;;;5087030;28;20257;-56
2021/01/17 05:29:24;;;;;;;5.35;4.95;;;15.70;50.80;;;;;;5087134;28;20631;-57
2021/01/17 05:31:51;;;;;;;5.55;5.05;;;15.60;50.70;;;;;;5086747;28;20182;-57
2021/01/17 05:34:18;;;;;;;5.32;4.93;;;15.60;50.60;;;;;;5068482;28;20192;-56
2021/01/17 05:36:44;;;;;;;5.55;5.05;;;15.60;50.70;;;;;;5086928;28;20232;-58
2021/01/17 05:39:09;;;;;;;5.47;5.07;;;15.60;50.70;;;;;;5087048;28;20173;-56
2021/01/17 05:41:35;;;;;;;5.93;5.32;;;15.60;50.70;;;;;;5086232;28;20249;-58
2021/01/17 05:44:00;;;;;;;5.22;4.82;;;15.60;50.70;;;;;;5086341;28;20655;-58
2021/01/17 05:46:26;;;;;;;5.05;4.65;;;15.60;50.70;;;;;;5086339;28;20608;-59
2021/01/17 05:49:11;;;;;;;5.63;5.13;;;15.60;50.70;;;;;;5086354;28;20183;-56
2021/01/17 05:51:37;;;;;;;5.18;4.78;;;15.60;50.70;;;;;;5086291;28;20204;-58
2021/01/17 05:54:07;;;;;;;5.97;5.47;;;15.60;50.80;;;;;;5068250;28;20182;-59
2021/01/17 05:56:34;;;;;;;5.43;5.03;;;15.50;50.80;;;;;;5067979;28;20181;-58
2021/01/17 05:58:59;;;;;;;4.95;4.55;;;15.60;50.70;;;;;;5067661;28;20471;-57
2021/01/17 06:01:25;;;;;;;5.78;5.28;;;15.50;50.90;;;;;;5086320;28;21019;-57
2021/01/17 06:03:54;;;;;;;4.90;4.50;;;15.60;50.90;;;;;;5051614;28;20647;-58
2021/01/17 06:06:28;;;;;;;5.10;4.70;;;15.60;51.00;;;;;;5086363;28;20188;-60
2021/01/17 06:08:58;;;;;;;5.18;4.78;;;15.70;51.30;;;;;;5085815;28;20527;-59
2021/01/17 06:11:24;;;;;;;4.53;4.13;;;15.90;51.20;;;;;;5086032;28;20178;-58
2021/01/17 06:14:00;;;;;;;4.88;4.47;;;16.10;50.90;;;;;;5085857;28;20178;-59
2021/01/17 06:16:34;;;;;;;4.13;3.83;;;16.50;50.50;;;;;;5085263;28;20185;-57
2021/01/17 06:19:01;;;;;;;4.15;3.85;;;17.00;49.90;;;;;;5085781;28;20173;-60
2021/01/17 06:21:27;;;;;;;4.43;4.10;;;17.30;49.20;;;;;;5085956;28;20226;-59
2021/01/17 06:24:05;;;;;;;4.20;3.80;;;17.70;48.70;;;;;;5085654;28;20205;-58
2021/01/17 06:26:31;;;;;;;3.75;3.47;;;18.00;48.10;;;;;;5085986;28;20190;-59
2021/01/17 06:28:58;;;;;;;3.25;3.03;;;18.20;47.90;;;;;;5085362;28;20198;-59
2021/01/17 06:31:30;;;;;;;3.90;3.60;;;18.40;47.50;;;;;;5085713;28;20256;-59
2021/01/17 06:34:11;;;;;;;3.90;3.55;;;18.60;47.20;;;;;;5085649;28;20174;-59
2021/01/17 06:36:38;;;;;;;3.25;3.05;;;18.60;47.20;;;;;;5085484;28;20165;-58
2021/01/17 06:39:23;;;;;;;3.08;2.88;;;18.70;47.30;;;;;;5085382;28;20162;-59
2021/01/17 06:41:53;;;;;;;3.38;3.17;;;18.60;47.20;;;;;;5085476;28;20173;-61
2021/01/17 06:44:18;;;;;;;3.28;3.08;;;18.60;47.30;;;;;;5067748;28;20250;-60
2021/01/17 06:46:45;;;;;;;3.28;3.05;;;18.60;47.50;;;;;;5050522;28;20181;-60
2021/01/17 06:49:20;;;;;;;3.60;3.30;;;18.60;47.50;;;;;;5084928;28;20170;-56
2021/01/17 06:51:46;;;;;;;4.10;3.80;;;18.50;47.50;;;;;;5085138;28;20173;-59
2021/01/17 06:54:12;;;;;;;3.90;3.60;;;18.50;47.60;;;;;;5085033;28;20173;-61
2021/01/17 06:56:37;;;;;;;3.47;3.28;;;18.50;47.60;;;;;;5050515;28;20572;-60
2021/01/17 06:59:03;;;;;;;3.75;3.47;;;18.40;47.70;;;;;;5084957;28;20635;-59
2021/01/17 07:01:29;;;;;;;4.15;3.85;;;18.40;48.50;;;;;;5085136;28;20523;-57
2021/01/17 07:04:08;;;;;;;3.50;3.20;;;18.40;47.90;;;;;;5084823;28;20216;-58
2021/01/17 07:07:12;;;;;;;3.40;3.20;;;18.40;48.00;;;;;;5067115;28;20643;-60
2021/01/17 07:09:46;;;;;;;3.67;3.38;;;18.40;48.00;;;;;;4983273;28;20228;-58
2021/01/17 07:12:31;;;;;;;3.83;3.53;;;18.30;48.10;;;;;;4982939;28;20329;-59
2021/01/17 07:15:02;;;;;;;4.07;3.78;;;18.30;48.10;;;;;;5031957;28;20189;-60
2021/01/17 07:17:32;;;;;;;3.70;3.40;;;18.30;48.10;;;;;;5084773;28;20195;-58
2021/01/17 07:20:00;;;;;;;4.10;3.80;;;18.30;48.10;;;;;;5084208;28;20284;-60
2021/01/17 07:22:27;;;;;;;3.90;3.60;;;18.30;48.70;;;;;;5084506;28;20194;-59
2021/01/17 07:24:52;;;;;;;3.70;3.40;;;18.30;48.10;;;;;;5050212;28;20219;-58
2021/01/17 07:27:27;;;;;;;3.42;3.13;;;18.30;48.10;;;;;;5050168;28;20539;-56
2021/01/17 07:29:52;;;;;;;3.60;3.30;;;18.30;48.30;;;;;;5050992;28;20280;-60
2021/01/17 07:32:34;;;;;;;3.40;3.20;;;18.30;48.30;;;;;;5050039;28;20797;-60
2021/01/17 07:35:07;;;;;;;3.65;3.35;;;18.30;48.40;;;;;;5084282;28;20260;-59
2021/01/17 07:37:32;;;;;;;3.45;3.20;;;18.30;48.40;;;;;;5084312;28;20186;-58
2021/01/17 07:39:58;;;;;;;3.85;3.55;;;18.20;48.30;;;;;;5084286;28;20177;-58
2021/01/17 07:42:24;;;;;;;4.00;3.70;;;18.30;48.40;;;;;;5049734;28;20568;-58
2021/01/17 07:44:54;;;;;;;3.55;3.25;;;18.30;48.40;;;;;;5084285;28;20288;-58
2021/01/17 07:47:29;;;;;;;3.28;3.08;;;18.30;48.30;;;;;;5084349;28;20170;-59
2021/01/17 07:49:56;;;;;;;3.67;3.38;;;18.30;48.30;;;;;;5066351;28;20182;-59
2021/01/17 07:52:22;;;;;;;3.47;3.17;;;18.30;48.30;;;;;;5084316;28;20177;-60
2021/01/17 07:54:47;;;;;;;3.78;3.47;;;18.30;48.90;;;;;;5066347;28;20177;-58
2021/01/17 07:57:13;;;;;;;3.80;3.50;;;18.30;48.20;;;;;;5066125;28;20684;-58
2021/01/17 07:59:38;;;;;;;3.45;3.15;;;18.30;48.30;;;;;;5049507;28;20519;-58
2021/01/17 08:02:04;;;;;;;3.85;3.55;;;18.30;48.40;;;;;;5084200;28;20186;-58
2021/01/17 08:04:29;;;;;;;3.90;3.60;;;18.20;48.40;;;;;;5066280;28;20304;-56
2021/01/17 08:06:55;;;;;;;3.65;3.35;;;18.20;48.60;;;;;;5087433;28;20205;-59
2021/01/17 08:09:45;;;;;;;3.83;3.35;;;18.10;48.80;;;;;;5088238;28;20188;-55
2021/01/17 08:12:33;;;;;;;4.32;3.92;;;18.00;48.90;;;;;;5088409;28;20758;-62
2021/01/17 08:15:18;;;;;;;3.72;3.40;;;17.90;49.30;;;;;;5071631;28;20170;-63
2021/01/17 08:17:44;;;;;;;3.88;3.58;;;17.80;49.90;;;;;;5088315;28;20174;-61
2021/01/17 08:20:10;;;;;;;4.07;3.67;;;17.80;49.40;;;;;;5087910;28;20206;-63
2021/01/17 08:22:41;;;;;;;3.58;3.28;;;17.70;49.50;;;;;;5070404;28;20177;-63
2021/01/17 08:25:07;;;;;;;3.95;3.65;;;17.60;49.60;;;;;;5087940;28;20270;-63
2021/01/17 08:27:40;;;;;;;3.67;3.38;;;17.60;49.60;;;;;;5087890;28;20189;-62
2021/01/17 08:30:06;;;;;;;4.72;3.80;;;17.60;49.70;;;;;;5087711;28;20249;-61
2021/01/17 08:32:41;;;;;;;4.20;3.90;;;17.60;49.70;;;;;;5087807;28;20174;-61
2021/01/17 08:35:17;;;;;;;3.85;3.55;;;17.60;49.60;;;;;;5087841;28;20289;-61
2021/01/17 08:37:49;;;;;;;4.40;4.03;;;17.60;49.60;;;;;;5088215;28;20224;-62
2021/01/17 08:40:18;;;;;;;4.30;3.90;;;17.60;49.50;;;;;;5069684;28;20169;-62
2021/01/17 08:42:53;;;;;;;4.30;3.90;;;17.70;49.50;;;;;;5069810;28;20165;-61
2021/01/17 08:45:19;;;;;;;4.70;4.20;;;17.80;49.50;;;;;;5087716;28;20201;-62
2021/01/17 08:47:45;;;;;;;4.50;3.95;;;17.80;49.40;;;;;;5087515;28;20227;-62
2021/01/17 08:50:29;;;;;;;4.93;4.43;;;17.80;49.60;;;;;;5087480;28;20209;-63
2021/01/17 08:53:23;;;;;;;5.45;4.07;;;17.80;49.50;;;;;;5087311;28;20615;-63
2021/01/17 08:55:50;;;;;;;4.82;4.32;;;17.80;49.50;;;;;;5071608;28;20176;-65
2021/01/17 08:58:25;;;;;;;4.97;4.45;;;17.90;49.80;;;;;;5053155;28;20201;-62
2021/01/17 09:00:51;;;;;;;6.25;5.22;;;17.80;49.80;;;;;;5086883;28;20577;-61
2021/01/17 09:03:29;;;;;;;5.28;4.75;;;17.80;50.00;;;;;;5087420;28;20178;-63
2021/01/17 09:05:59;;;;;;;4.38;3.95;;;17.70;50.20;;;;;;5087214;28;20262;-62
2021/01/17 09:08:25;;;;;;;5.20;4.70;;;17.70;50.40;;;;;;5087063;28;20855;-64
2021/01/17 09:10:51;;;;;;;6.18;4.75;;;17.60;50.40;;;;;;5087012;28;20166;-62
2021/01/17 09:13:23;;;;;;;5.07;4.60;;;17.60;50.50;;;;;;5086861;28;20627;-62
2021/01/17 09:15:52;;;;;;;5.43;4.80;;;17.60;50.60;;;;;;5087440;28;20173;-61
2021/01/17 09:18:23;;;;;;;5.43;4.93;;;17.60;50.60;;;;;;5085866;28;20193;-61
2021/01/17 09:20:49;;;;;;;5.90;4.43;;;17.60;50.50;;;;;;5086713;28;20177;-62
2021/01/17 09:23:15;;;;;;;5.65;5.05;;;17.70;50.60;;;;;;5052289;28;20202;-63
2021/01/17 09:25:40;;;;;;;5.45;4.88;;;17.70;50.50;;;;;;5052094;28;20237;-63
2021/01/17 09:28:06;;;;;;;5.32;4.80;;;17.70;50.50;;;;;;5068749;28;20173;-63
2021/01/17 09:30:31;;;;;;;6.15;4.95;;;17.80;50.50;;;;;;5069245;28;20661;-62
2021/01/17 09:32:57;;;;;;;5.50;5.00;;;17.80;50.50;;;;;;5086834;28;20173;-63
2021/01/17 09:35:22;;;;;;;7.00;4.70;;;17.80;50.50;;;;;;5068770;28;20595;-56
2021/01/17 09:37:49;;;;;;;6.47;5.40;;;17.70;50.50;;;;;;5086271;28;20182;-58
2021/01/17 09:40:14;;;;;;;7.15;5.40;;;17.70;50.70;;;;;;5052215;28;20181;-61
2021/01/17 09:42:40;;;;;;;8.82;5.75;;;17.60;50.90;;;;;;5086726;28;20553;-60
2021/01/17 09:45:07;;;;;;;6.10;5.25;;;17.60;51.20;;;;;;5051798;28;20197;-63
2021/01/17 09:47:35;;;;;;;5.80;4.95;;;17.60;51.20;;;;;;5086705;28;20189;-61
2021/01/17 09:50:08;;;;;;;7.63;5.68;;;17.60;51.20;;;;;;5068512;28;20170;-62
2021/01/17 09:52:37;;;;;;;6.20;5.25;;;17.60;51.10;;;;;;5086072;28;20278;-63
2021/01/17 09:55:05;;;;;;;5.82;5.07;;;17.70;51.10;;;;;;5086430;28;20177;-62
2021/01/17 09:57:31;;;;;;;5.35;4.85;;;17.80;51.10;;;;;;5051553;28;20178;-62
2021/01/17 09:59:56;;;;;;;5.80;4.78;;;17.80;51.00;;;;;;5086131;28;20174;-63
2021/01/17 10:02:25;;;;;;;7.20;5.03;;;17.80;51.00;;;;;;5086216;28;20601;-61
2021/01/17 10:04:51;;;;;;;7.82;5.32;;;17.70;51.10;;;;;;5085550;28;20619;-61
2021/01/17 10:07:20;;;;;;;5.80;4.93;;;17.70;51.20;;;;;;5085647;28;20185;-61
2021/01/17 10:09:46;;;;;;;5.57;5.07;;;17.70;51.30;;;;;;5085728;28;20191;-62
2021/01/17 10:12:12;;;;;;;6.25;4.78;;;17.60;51.40;;;;;;5085508;28;20599;-65
2021/01/17 10:14:38;;;;;;;6.65;5.20;;;17.60;51.40;;;;;;5086040;28;20176;-63
2021/01/17 10:17:05;;;;;;;8.40;5.28;;;17.60;51.50;;;;;;5067765;28;20178;-62
2021/01/17 10:19:35;;;;;;;7.45;5.35;;;17.60;51.40;;;;;;5085524;28;20708;-62
2021/01/17 10:22:01;;;;;;;5.93;5.35;;;17.60;51.40;;;;;;5085913;28;20907;-62
2021/01/17 10:24:28;;;;;;;5.55;4.95;;;17.70;51.50;;;;;;5067793;28;20288;-63
2021/01/17 10:26:58;;;;;;;6.88;5.47;;;17.60;51.40;;;;;;5085514;28;20273;-62
2021/01/17 10:29:28;;;;;;;5.75;4.72;;;17.60;51.40;;;;;;5085015;28;20300;-61
2021/01/17 10:31:59;;;;;;;5.25;4.75;;;17.60;51.40;;;;;;5067338;28;20986;-62
2021/01/17 10:34:27;;;;;;;5.25;4.75;;;17.60;51.50;;;;;;5085928;28;20178;-63
2021/01/17 10:36:58;;;;;;;6.10;5.10;;;17.50;51.50;;;;;;5067541;28;20170;-60
2021/01/17 10:39:24;;;;;;;5.95;5.35;;;17.50;51.70;;;;;;5085225;28;20571;-62
2021/01/17 10:41:52;;;;;;;6.15;4.97;;;17.50;51.70;;;;;;5085512;28;20174;-63
2021/01/17 10:44:23;;;;;;;6.10;5.10;;;17.50;51.80;;;;;;5067609;28;20658;-62
2021/01/17 10:46:49;;;;;;;5.60;4.93;;;17.50;51.80;;;;;;5050861;28;20177;-61
2021/01/17 10:49:17;;;;;;;6.07;5.22;;;17.50;51.70;;;;;;5067425;28;20185;-63
2021/01/17 10:51:46;;;;;;;5.93;4.47;;;17.50;51.70;;;;;;5050413;28;20211;-63
2021/01/17 10:54:21;;;;;;;5.88;5.10;;;17.50;51.70;;;;;;5067227;28;20274;-62
2021/01/17 10:56:46;;;;;;;6.15;5.03;;;17.50;51.70;;;;;;5050674;28;20177;-63
2021/01/17 10:59:12;;;;;;;5.50;4.93;;;17.50;51.80;;;;;;5067146;28;20178;-61
2021/01/17 11:01:38;;;;;;;5.38;4.88;;;17.50;51.80;;;;;;5085000;28;20199;-63
2021/01/17 11:04:03;;;;;;;6.35;5.45;;;17.40;51.80;;;;;;5066560;28;20185;-62
2021/01/17 11:06:29;;;;;;;5.75;5.25;;;17.40;51.80;;;;;;5085033;28;20215;-61
2021/01/17 11:08:56;;;;;;;7.25;5.15;;;17.40;51.80;;;;;;5085043;28;20174;-60
2021/01/17 11:11:23;;;;;;;6.13;5.50;;;17.40;51.90;;;;;;5066841;28;20173;-62
2021/01/17 11:13:59;;;;;;;5.30;4.75;;;17.50;52.00;;;;;;5066435;28;20969;-64
2021/01/17 11:16:39;;;;;;;6.28;5.18;;;17.50;51.90;;;;;;5066747;28;20255;-62
2021/01/17 11:19:06;;;;;;;6.22;5.30;;;17.50;51.80;;;;;;5084505;28;20215;-62
2021/01/17 11:21:32;;;;;;;5.80;5.20;;;17.60;51.70;;;;;;5084423;28;20181;-55
2021/01/17 11:23:58;;;;;;;5.10;4.45;;;17.60;51.80;;;;;;5084618;28;20205;-62
2021/01/17 11:26:24;;;;;;;5.68;4.55;;;17.70;51.80;;;;;;5049802;28;20205;-62
2021/01/17 11:28:54;;;;;;;4.93;4.47;;;18.00;51.50;;;;;;5049756;28;20166;-62
2021/01/17 11:31:20;;;;;;;4.55;4.07;;;18.20;51.10;;;;;;5084544;28;20170;-62
2021/01/17 11:33:48;;;;;;;4.95;4.38;;;18.50;50.80;;;;;;5066368;28;20178;-61
2021/01/17 11:36:20;;;;;;;5.65;5.10;;;18.80;50.40;;;;;;5084481;28;20289;-62
2021/01/17 11:38:50;;;;;;;4.38;3.85;;;19.00;50.10;;;;;;5084419;28;20176;-62
2021/01/17 11:41:19;;;;;;;4.38;3.97;;;19.10;49.90;;;;;;5083606;28;20170;-62
2021/01/17 11:43:45;;;;;;;4.50;3.80;;;19.30;49.70;;;;;;5084148;28;20181;-62
2021/01/17 11:46:11;;;;;;;4.32;3.92;;;19.30;49.60;;;;;;5066312;28;20213;-62
2021/01/17 11:48:37;;;;;;;4.53;4.03;;;19.40;49.40;;;;;;5084417;28;20635;-64
2021/01/17 11:51:03;;;;;;;4.75;4.03;;;19.50;49.40;;;;;;5084340;28;20624;-64
2021/01/17 11:53:29;;;;;;;4.35;3.55;;;19.50;49.40;;;;;;5084713;28;20173;-62
2021/01/17 11:55:55;;;;;;;5.65;4.10;;;19.60;49.30;;;;;;5084313;28;20173;-62
2021/01/17 11:58:21;;;;;;;6.22;4.70;;;19.70;49.30;;;;;;5066335;28;20647;-63
2021/01/17 12:00:52;;;;;;;4.55;3.85;;;19.70;49.20;;;;;;5049652;28;20634;-63
2021/01/17 12:03:30;;;;;;;5.82;3.92;;;19.70;49.20;;;;;;5066482;28;20169;-62
2021/01/17 12:06:06;;;;;;;4.90;3.75;;;19.80;49.10;;;;;;5083712;28;20197;-62
2021/01/17 12:09:07;;;;;;;4.88;4.03;;;19.80;49.10;;;;;;5084214;28;20169;-66
2021/01/17 12:11:36;;;;;;;5.60;4.28;;;19.80;49.20;;;;;;4982172;28;20181;-65
2021/01/17 12:14:03;;;;;;;5.07;4.10;;;19.80;49.20;;;;;;5065521;28;20289;-63
2021/01/17 12:16:30;;;;;;;4.20;3.80;;;19.80;49.30;;;;;;5084150;28;20170;-64
2021/01/17 12:18:55;;;;;;;5.22;3.47;;;19.80;49.20;;;;;;5084320;28;20623;-64
2021/01/17 12:21:22;;;;;;;5.13;3.75;;;19.70;49.30;;;;;;5084015;28;20235;-64
2021/01/17 12:23:48;;;;;;;4.30;3.72;;;19.80;49.40;;;;;;5083938;28;20634;-65
2021/01/17 12:26:15;;;;;;;4.25;3.33;;;19.80;49.40;;;;;;5084495;28;20382;-62
2021/01/17 12:28:41;;;;;;;5.80;4.05;;;19.80;49.50;;;;;;5065967;28;20165;-65
2021/01/17 12:31:11;;;;;;;5.13;3.88;;;19.70;49.40;;;;;;5066389;28;20652;-65
2021/01/17 12:33:37;;;;;;;7.88;4.25;;;19.70;49.40;;;;;;5065871;28;20170;-65
2021/01/17 12:36:08;;;;;;;5.22;3.60;;;19.70;49.40;;;;;;5083820;28;20536;-65
2021/01/17 12:38:34;;;;;;;4.13;3.47;;;19.70;49.50;;;;;;5065677;28;20181;-63
2021/01/17 12:41:00;;;;;;;4.60;3.28;;;19.70;49.50;;;;;;5083461;28;20185;-64
2021/01/17 12:43:26;;;;;;;4.20;3.50;;;19.80;49.50;;;;;;5065798;28;20655;-65
2021/01/17 12:45:51;;;;;;;4.07;2.97;;;19.90;49.50;;;;;;5083667;28;20205;-64
2021/01/17 12:48:17;;;;;;;4.25;3.63;;;19.90;49.50;;;;;;5083668;28;20174;-65
2021/01/17 12:50:42;;;;;;;5.03;3.22;;;19.90;49.50;;;;;;5083731;28;20537;-64
2021/01/17 12:53:08;;;;;;;4.18;3.30;;;19.90;49.50;;;;;;5087257;28;20181;-64